Time;durP1;ratioP1;P1;durP2;ratioP2;P2;SDS_P1;SDS_P2;PMS_P1;PMS_P2;Temp;Humidity;BMP_temperature;BMP_pressure;BME280_temperature;BME280_humidity;BME280_pressure;Samples;Min_cycle;Max_cycle;Signal;HPM_P1;HPM_P2
2022/10/24 00:02:00;;;;;;;;;;;16.00;99.90;;;;;;5074684;28;19915;-81
2022/10/24 00:04:25;;;;;;;;;;;16.00;99.90;;;;;;5092835;28;19999;-82
2022/10/24 00:06:51;;;;;;;;;;;16.00;99.90;;;;;;5074505;28;19908;-81
2022/10/24 00:09:16;;;;;;;;;;;16.00;99.90;;;;;;5092571;28;20389;-81
2022/10/24 00:11:42;;;;;;;;;;;16.00;99.90;;;;;;5092851;28;20287;-81
2022/10/24 00:14:07;;;;;;;;;;;16.00;99.90;;;;;;5092897;28;19927;-81
2022/10/24 00:16:34;;;;;;;;;;;16.00;99.90;;;;;;5092573;28;19915;-82
2022/10/24 00:19:00;;;;;;;;;;;16.00;99.90;;;;;;5092727;28;19908;-82
2022/10/24 00:21:26;;;;;;;;;;;16.00;99.90;;;;;;5092786;28;19915;-82
2022/10/24 00:23:51;;;;;;;;;;;16.00;99.90;;;;;;5093658;28;19916;-82
2022/10/24 00:26:17;;;;;;;;;;;16.00;99.90;;;;;;5093140;28;19914;-81
2022/10/24 00:28:42;;;;;;;;;;;16.00;99.90;;;;;;5092679;28;19916;-82
2022/10/24 00:31:10;;;;;;;;;;;15.90;99.90;;;;;;5092829;28;19926;-81
2022/10/24 00:33:35;;;;;;;;;;;16.00;99.90;;;;;;5093565;28;19908;-81
2022/10/24 00:36:01;;;;;;;;;;;16.00;99.90;;;;;;5092679;28;20003;-81
2022/10/24 00:38:26;;;;;;;;;;;16.00;99.90;;;;;;5093120;28;19908;-82
2022/10/24 00:40:52;;;;;;;;;;;15.90;99.90;;;;;;5092984;28;20296;-81
2022/10/24 00:43:21;;;;;;;;;;;15.90;99.90;;;;;;5096876;28;19912;-81
2022/10/24 00:46:00;;;;;;;;;;;16.00;99.90;;;;;;5096655;28;19915;-81
2022/10/24 00:48:43;;;;;;;;;;;16.00;99.90;;;;;;5096610;28;19912;-81
2022/10/24 00:51:17;;;;;;;;;;;16.00;99.90;;;;;;5096657;28;19912;-81
2022/10/24 00:53:45;;;;;;;;;;;16.00;99.90;;;;;;5096577;28;19912;-81
2022/10/24 00:56:11;;;;;;;;;;;16.00;99.90;;;;;;5096349;28;20007;-81
2022/10/24 00:58:37;;;;;;;;;;;16.00;99.90;;;;;;5096450;28;19944;-81
2022/10/24 01:01:03;;;;;;;;;;;16.00;99.90;;;;;;5096455;28;19908;-82
2022/10/24 01:03:29;;;;;;;;;;;16.00;99.90;;;;;;5096288;28;19908;-82
2022/10/24 01:06:07;;;;;;;;;;;16.00;99.90;;;;;;5095875;28;19961;-81
2022/10/24 01:08:45;;;;;;;;;;;16.00;99.90;;;;;;5096035;28;19918;-81
2022/10/24 01:11:23;;;;;;;;;;;16.00;99.90;;;;;;5096057;28;19908;-81
2022/10/24 01:14:06;;;;;;;;;;;16.00;99.90;;;;;;5095978;28;19908;-81
2022/10/24 01:16:39;;;;;;;;;;;16.00;99.90;;;;;;5095813;28;20379;-82
2022/10/24 01:19:19;;;;;;;;;;;16.10;99.90;;;;;;5096212;28;19908;-81
2022/10/24 01:22:01;;;;;;;;;;;16.10;99.90;;;;;;5095966;28;20466;-82
2022/10/24 01:24:29;;;;;;;;;;;16.10;99.90;;;;;;5077652;28;19908;-81
2022/10/24 01:26:57;;;;;;;;;;;16.10;99.90;;;;;;5095866;28;19919;-81
2022/10/24 01:29:38;;;;;;;;;;;16.10;99.90;;;;;;5095661;28;19947;-82
2022/10/24 01:32:22;;;;;;;;;;;16.10;99.90;;;;;;5095628;28;19912;-82
2022/10/24 01:34:54;;;;;;;;;;;16.10;99.90;;;;;;5095639;28;19908;-81
2022/10/24 01:37:19;;;;;;;;;;;16.00;99.90;;;;;;5095320;28;19916;-81
2022/10/24 01:39:47;;;;;;;;;;;16.00;99.90;;;;;;5095463;28;20287;-81
2022/10/24 01:42:14;;;;;;;;;;;16.00;99.90;;;;;;5157731;22;20369;-80
2022/10/24 01:44:41;;;;;;;;;;;16.00;99.90;;;;;;5055647;28;19944;-80
2022/10/24 01:47:10;;;;;;;;;;;16.00;99.90;;;;;;5037536;28;19916;-81
2022/10/24 01:49:36;;;;;;;;;;;16.00;99.90;;;;;;5055790;28;19913;-80
2022/10/24 01:52:04;;;;;;;;;;;16.00;99.90;;;;;;5055907;28;19916;-81
2022/10/24 01:54:30;;;;;;;;;;;16.00;99.90;;;;;;5055539;28;19948;-80
2022/10/24 01:56:56;;;;;;;;;;;16.00;99.90;;;;;;5037183;28;19916;-80
2022/10/24 01:59:24;;;;;;;;;;;16.00;99.90;;;;;;5037462;28;20376;-80
2022/10/24 02:01:50;;;;;;;;;;;16.00;99.90;;;;;;5055151;28;19913;-80
2022/10/24 02:04:16;;;;;;;;;;;16.10;99.90;;;;;;5055530;28;19971;-80
2022/10/24 02:06:42;;;;;;;;;;;16.10;99.90;;;;;;5055410;28;19908;-81
2022/10/24 02:09:14;;;;;;;;;;;16.10;99.90;;;;;;5037715;28;19927;-80
2022/10/24 02:11:40;;;;;;;;;;;16.00;99.90;;;;;;5037090;28;19931;-80
2022/10/24 02:14:09;;;;;;;;;;;16.00;99.90;;;;;;5054854;28;19912;-81
2022/10/24 02:16:35;;;;;;;;;;;16.00;99.90;;;;;;5054517;28;19916;-82
2022/10/24 02:19:00;;;;;;;;;;;16.00;99.90;;;;;;5055178;28;20291;-80
2022/10/24 02:21:44;;;;;;;;;;;16.00;99.90;;;;;;5054662;28;19909;-82
2022/10/24 02:24:20;;;;;;;;;;;16.00;99.90;;;;;;5037188;28;19913;-79
2022/10/24 02:26:48;;;;;;;;;;;16.00;99.90;;;;;;5054628;28;19959;-79
2022/10/24 02:29:16;;;;;;;;;;;16.00;99.90;;;;;;5037122;28;20375;-80
2022/10/24 02:31:47;;;;;;;;;;;16.00;99.90;;;;;;5037076;28;20359;-82
2022/10/24 02:34:13;;;;;;;;;;;16.00;99.90;;;;;;5054962;28;19909;-80
2022/10/24 02:36:40;;;;;;;;;;;16.00;99.90;;;;;;5054265;28;19908;-82
2022/10/24 02:39:07;;;;;;;;;;;16.00;99.90;;;;;;5054398;28;19916;-82
2022/10/24 02:41:34;;;;;;;;;;;16.10;99.90;;;;;;5054634;28;19920;-79
2022/10/24 02:44:01;;;;;;;;;;;16.00;99.90;;;;;;5037305;28;19916;-82
2022/10/24 02:46:26;;;;;;;;;;;16.00;99.90;;;;;;5036421;28;19916;-80
2022/10/24 02:48:54;;;;;;;;;;;16.10;99.90;;;;;;5036776;28;20367;-80
2022/10/24 02:51:21;;;;;;;;;;;16.10;99.90;;;;;;5056173;28;19913;-80
2022/10/24 02:53:46;;;;;;;;;;;16.00;99.90;;;;;;5038295;28;19955;-83
2022/10/24 02:56:12;;;;;;;;;;;16.00;99.90;;;;;;5055685;28;20299;-83
2022/10/24 02:58:37;;;;;;;;;;;16.10;99.90;;;;;;5056050;28;19916;-81
2022/10/24 03:01:03;;;;;;;;;;;16.10;99.90;;;;;;5037848;28;20352;-81
2022/10/24 03:03:28;;;;;;;;;;;16.10;99.90;;;;;;5054592;28;19909;-83
2022/10/24 03:05:54;;;;;;;;;;;16.10;99.90;;;;;;5053862;28;19909;-81
2022/10/24 03:08:19;;;;;;;;;;;16.20;99.90;;;;;;5036101;28;20051;-81
2022/10/24 03:10:45;;;;;;;;;;;16.20;99.90;;;;;;5035996;28;19916;-82
2022/10/24 03:13:10;;;;;;;;;;;16.20;99.90;;;;;;5054428;28;20402;-81
2022/10/24 03:15:36;;;;;;;;;;;16.20;99.90;;;;;;5037229;28;19940;-82
2022/10/24 03:18:01;;;;;;;;;;;16.20;99.90;;;;;;5053893;28;20007;-81
2022/10/24 03:20:27;;;;;;;;;;;16.20;99.90;;;;;;5053826;28;19913;-83
2022/10/24 03:22:52;;;;;;;;;;;16.20;99.90;;;;;;5035740;28;19915;-81
2022/10/24 03:25:17;;;;;;;;;;;16.20;99.90;;;;;;5053613;28;19909;-81
2022/10/24 03:27:43;;;;;;;;;;;16.20;99.90;;;;;;5053491;28;19944;-82
2022/10/24 03:30:09;;;;;;;;;;;16.20;99.90;;;;;;5053789;28;19942;-81
2022/10/24 03:32:34;;;;;;;;;;;16.20;99.90;;;;;;5035891;28;19909;-81
2022/10/24 03:35:00;;;;;;;;;;;16.20;99.90;;;;;;5053648;28;19912;-81
2022/10/24 03:37:26;;;;;;;;;;;16.20;99.90;;;;;;5035758;28;19962;-81
2022/10/24 03:39:51;;;;;;;;;;;16.20;99.90;;;;;;5035539;28;19970;-82
2022/10/24 03:42:17;;;;;;;;;;;16.20;99.90;;;;;;5035246;28;20363;-81
2022/10/24 03:44:42;;;;;;;;;;;16.20;99.90;;;;;;5035615;28;20248;-81
2022/10/24 03:47:07;;;;;;;;;;;16.20;99.90;;;;;;5035464;28;19932;-82
2022/10/24 03:49:33;;;;;;;;;;;16.20;99.90;;;;;;5053346;28;19912;-81
2022/10/24 03:51:59;;;;;;;;;;;16.20;99.90;;;;;;5035598;28;20358;-81
2022/10/24 03:54:24;;;;;;;;;;;16.20;99.90;;;;;;5035135;28;20000;-82
2022/10/24 03:56:50;;;;;;;;;;;16.20;99.90;;;;;;5053003;28;19920;-84
2022/10/24 03:59:15;;;;;;;;;;;16.10;99.90;;;;;;5035278;28;19909;-82
2022/10/24 04:01:40;;;;;;;;;;;16.10;99.90;;;;;;5052976;28;19908;-81
2022/10/24 04:04:06;;;;;;;;;;;16.20;99.90;;;;;;5035172;28;19912;-80
2022/10/24 04:06:32;;;;;;;;;;;16.20;99.90;;;;;;5052921;28;19948;-79
2022/10/24 04:08:58;;;;;;;;;;;16.20;99.90;;;;;;5034370;28;20198;-82
2022/10/24 04:11:24;;;;;;;;;;;16.20;99.90;;;;;;5052788;28;19909;-82
2022/10/24 04:13:51;;;;;;;;;;;16.20;99.90;;;;;;5052689;28;19962;-81
2022/10/24 04:16:16;;;;;;;;;;;16.10;99.90;;;;;;5052339;28;19968;-82
2022/10/24 04:18:42;;;;;;;;;;;16.10;99.90;;;;;;5052885;28;20322;-81
2022/10/24 04:21:07;;;;;;;;;;;16.10;99.90;;;;;;5034902;28;20283;-81
2022/10/24 04:23:37;;;;;;;;;;;16.10;99.90;;;;;;5034963;28;19913;-81
2022/10/24 04:26:03;;;;;;;;;;;16.10;99.90;;;;;;5052697;28;19968;-82
2022/10/24 04:28:29;;;;;;;;;;;16.10;99.90;;;;;;5052561;28;20029;-81
2022/10/24 04:30:55;;;;;;;;;;;16.10;99.90;;;;;;5034606;28;19915;-81
2022/10/24 04:33:20;;;;;;;;;;;16.10;99.90;;;;;;5052659;28;19909;-82
2022/10/24 04:35:47;;;;;;;;;;;16.10;99.90;;;;;;5052506;28;19908;-81
2022/10/24 04:38:12;;;;;;;;;;;16.10;99.90;;;;;;5052754;28;19952;-79
2022/10/24 04:40:38;;;;;;;;;;;16.10;99.90;;;;;;5052849;28;19945;-82
2022/10/24 04:43:03;;;;;;;;;;;16.10;99.90;;;;;;5052637;28;19963;-81
2022/10/24 04:45:29;;;;;;;;;;;16.20;99.90;;;;;;5052444;28;19908;-81
2022/10/24 04:47:54;;;;;;;;;;;16.20;99.90;;;;;;5034578;28;20410;-81
2022/10/24 04:50:19;;;;;;;;;;;16.20;99.90;;;;;;5034615;28;19969;-81
2022/10/24 04:52:45;;;;;;;;;;;16.10;99.90;;;;;;5052537;28;19909;-81
2022/10/24 04:55:10;;;;;;;;;;;16.10;99.90;;;;;;5034694;28;20475;-81
2022/10/24 04:57:36;;;;;;;;;;;16.10;99.90;;;;;;5034443;28;20005;-82
2022/10/24 05:00:02;;;;;;;;;;;16.10;99.90;;;;;;5034541;28;19908;-82
2022/10/24 05:02:28;;;;;;;;;;;16.10;99.90;;;;;;5034538;28;19916;-81
2022/10/24 05:04:53;;;;;;;;;;;16.10;99.90;;;;;;5052576;28;20318;-81
2022/10/24 05:07:20;;;;;;;;;;;16.10;99.90;;;;;;5052247;28;19952;-81
2022/10/24 05:09:46;;;;;;;;;;;16.10;99.90;;;;;;5034585;28;19913;-79
2022/10/24 05:12:11;;;;;;;;;;;16.10;99.90;;;;;;5034653;28;20067;-79
2022/10/24 05:14:37;;;;;;;;;;;16.00;99.90;;;;;;5034572;28;19932;-79
2022/10/24 05:17:02;;;;;;;;;;;16.00;99.90;;;;;;5034109;28;19955;-81
2022/10/24 05:19:28;;;;;;;;;;;16.10;99.90;;;;;;5052424;28;20355;-83
2022/10/24 05:21:53;;;;;;;;;;;16.10;99.90;;;;;;5052288;28;19969;-81
2022/10/24 05:24:19;;;;;;;;;;;16.00;99.90;;;;;;5034292;28;19955;-81
2022/10/24 05:26:44;;;;;;;;;;;16.00;99.90;;;;;;5034403;28;19916;-81
2022/10/24 05:29:10;;;;;;;;;;;16.00;99.90;;;;;;5056026;28;19947;-81
2022/10/24 05:31:35;;;;;;;;;;;16.00;99.90;;;;;;5055908;28;19908;-81
2022/10/24 05:34:01;;;;;;;;;;;16.00;99.90;;;;;;5037988;28;19916;-81
2022/10/24 05:36:26;;;;;;;;;;;15.90;99.90;;;;;;5055531;28;19958;-81
2022/10/24 05:38:51;;;;;;;;;;;15.90;99.90;;;;;;5056005;28;19916;-81
2022/10/24 05:41:17;;;;;;;;;;;15.90;99.90;;;;;;5055477;28;20353;-81
2022/10/24 05:43:42;;;;;;;;;;;15.90;99.90;;;;;;5055714;28;19919;-83
2022/10/24 05:46:09;;;;;;;;;;;15.90;99.90;;;;;;5055429;28;19909;-81
2022/10/24 05:48:35;;;;;;;;;;;15.90;99.90;;;;;;5055444;28;20367;-81
2022/10/24 05:51:00;;;;;;;;;;;15.90;99.90;;;;;;5055442;28;20015;-81
2022/10/24 05:53:26;;;;;;;;;;;15.80;99.90;;;;;;5037357;28;19915;-81
2022/10/24 05:55:51;;;;;;;;;;;15.90;99.90;;;;;;5037865;28;19909;-81
2022/10/24 05:58:20;;;;;;;;;;;15.80;99.90;;;;;;5037542;28;19909;-81
2022/10/24 06:00:49;;;;;;;;;;;15.80;99.90;;;;;;5037476;28;19909;-82
2022/10/24 06:03:14;;;;;;;;;;;15.80;99.90;;;;;;5055412;28;19909;-81
2022/10/24 06:05:40;;;;;;;;;;;15.80;99.90;;;;;;5054925;28;19915;-81
2022/10/24 06:08:05;;;;;;;;;;;15.70;99.90;;;;;;5037346;28;19931;-81
2022/10/24 06:10:31;;;;;;;;;;;15.70;99.90;;;;;;5054956;28;20585;-81
2022/10/24 06:12:56;;;;;;;;;;;15.70;99.90;;;;;;5037507;28;19932;-81
2022/10/24 06:15:21;;;;;;;;;;;15.70;99.90;;;;;;5037206;28;19932;-86
2022/10/24 06:17:47;;;;;;;;;;;15.70;99.90;;;;;;5055154;28;19909;-81
2022/10/24 06:20:12;;;;;;;;;;;15.60;99.90;;;;;;5054959;28;20348;-81
2022/10/24 06:22:38;;;;;;;;;;;15.60;99.90;;;;;;5054817;28;19966;-81
2022/10/24 06:25:04;;;;;;;;;;;15.70;99.90;;;;;;5037471;28;19909;-81
2022/10/24 06:27:29;;;;;;;;;;;15.70;99.90;;;;;;5062030;28;19928;-85
2022/10/24 06:29:55;;;;;;;;;;;15.70;99.90;;;;;;5065757;28;20465;-81
2022/10/24 06:32:20;;;;;;;;;;;15.70;99.90;;;;;;5037135;28;19909;-81
2022/10/24 06:34:46;;;;;;;;;;;15.70;99.90;;;;;;5036802;28;19913;-81
2022/10/24 06:37:11;;;;;;;;;;;15.70;99.90;;;;;;5036377;28;19909;-81
2022/10/24 06:39:36;;;;;;;;;;;15.70;99.90;;;;;;5036025;28;19908;-81
2022/10/24 06:42:02;;;;;;;;;;;15.80;99.90;;;;;;5054173;28;19991;-81
2022/10/24 06:44:27;;;;;;;;;;;15.80;99.90;;;;;;5054614;28;20589;-81
2022/10/24 06:46:53;;;;;;;;;;;15.80;99.90;;;;;;5053930;28;19912;-81
2022/10/24 06:49:18;;;;;;;;;;;15.90;99.90;;;;;;5054397;28;19916;-83
2022/10/24 06:51:44;;;;;;;;;;;16.00;99.90;;;;;;5054415;28;20060;-81
2022/10/24 06:54:10;;;;;;;;;;;16.00;99.90;;;;;;5054516;28;19913;-81
2022/10/24 06:56:35;;;;;;;;;;;16.00;99.90;;;;;;5053762;28;19916;-81
2022/10/24 06:59:01;;;;;;;;;;;16.10;99.90;;;;;;5036248;28;19909;-82
2022/10/24 07:01:26;;;;;;;;;;;16.20;99.90;;;;;;5036182;28;20024;-81
2022/10/24 07:03:53;;;;;;;;;;;16.20;99.90;;;;;;5054248;28;19909;-81
2022/10/24 07:06:20;;;;;;;;;;;16.30;99.90;;;;;;5053979;28;19992;-81
2022/10/24 07:08:45;;;;;;;;;;;16.40;99.90;;;;;;5035984;28;20004;-81
2022/10/24 07:11:11;;;;;;;;;;;16.40;99.90;;;;;;5030434;28;20000;-81
2022/10/24 07:13:36;;;;;;;;;;;16.50;99.90;;;;;;5033994;28;20180;-81
2022/10/24 07:16:02;;;;;;;;;;;16.60;99.90;;;;;;5033518;28;20337;-81
2022/10/24 07:18:27;;;;;;;;;;;16.70;99.90;;;;;;5032811;28;19916;-83
2022/10/24 07:20:53;;;;;;;;;;;16.70;99.90;;;;;;5034490;28;20003;-82
2022/10/24 07:23:18;;;;;;;;;;;16.70;99.90;;;;;;5016419;28;19963;-82
2022/10/24 07:25:44;;;;;;;;;;;16.90;99.90;;;;;;5016314;28;19913;-82
2022/10/24 07:28:10;;;;;;;;;;;17.00;99.90;;;;;;5016102;28;20007;-83
2022/10/24 07:30:36;;;;;;;;;;;17.00;99.90;;;;;;5016451;28;19915;-81
2022/10/24 07:33:01;;;;;;;;;;;17.10;99.90;;;;;;5033946;28;19915;-82
2022/10/24 07:35:27;;;;;;;;;;;17.20;99.90;;;;;;5034095;28;20443;-82
2022/10/24 07:37:52;;;;;;;;;;;17.30;99.90;;;;;;5033948;28;20261;-82
2022/10/24 07:40:18;;;;;;;;;;;17.30;99.90;;;;;;5033620;28;20392;-82
2022/10/24 07:42:44;;;;;;;;;;;17.40;99.90;;;;;;5101101;22;19931;-79
2022/10/24 07:45:10;;;;;;;;;;;17.50;99.90;;;;;;5079453;28;19915;-79
2022/10/24 07:47:35;;;;;;;;;;;17.60;99.90;;;;;;5075941;28;19997;-79
2022/10/24 07:50:01;;;;;;;;;;;17.60;99.90;;;;;;5067979;28;19923;-77
2022/10/24 07:52:26;;;;;;;;;;;17.60;99.90;;;;;;5070339;28;19942;-77
2022/10/24 07:54:53;;;;;;;;;;;17.70;99.90;;;;;;5079563;28;20371;-78
2022/10/24 07:57:19;;;;;;;;;;;17.80;99.90;;;;;;5078838;28;19908;-78
2022/10/24 07:59:44;;;;;;;;;;;17.70;99.90;;;;;;5097428;28;19914;-78
2022/10/24 08:02:10;;;;;;;;;;;17.70;99.90;;;;;;5063888;28;20410;-78
2022/10/24 08:04:36;;;;;;;;;;;17.70;99.90;;;;;;5059169;28;19908;-78
2022/10/24 08:07:02;;;;;;;;;;;17.80;99.90;;;;;;5058858;28;19999;-78
2022/10/24 08:09:27;;;;;;;;;;;17.80;99.90;;;;;;5058910;28;19959;-77
2022/10/24 08:11:53;;;;;;;;;;;17.70;99.90;;;;;;5058278;28;20122;-77
2022/10/24 08:14:18;;;;;;;;;;;17.90;99.90;;;;;;5059410;28;19915;-78
2022/10/24 08:16:44;;;;;;;;;;;18.00;99.90;;;;;;5058690;28;19908;-77
2022/10/24 08:19:13;;;;;;;;;;;18.20;99.90;;;;;;5058783;28;20310;-77
2022/10/24 08:21:39;;;;;;;;;;;18.40;99.90;;;;;;5058677;28;20261;-78
2022/10/24 08:24:05;;;;;;;;;;;18.50;99.90;;;;;;5058802;28;19970;-78
2022/10/24 08:26:30;;;;;;;;;;;18.70;99.90;;;;;;5059131;28;19917;-78
2022/10/24 08:28:56;;;;;;;;;;;18.90;99.90;;;;;;5058043;28;19958;-78
2022/10/24 08:31:23;;;;;;;;;;;19.00;99.90;;;;;;5057431;28;19955;-78
2022/10/24 08:33:53;;;;;;;;;;;19.00;99.90;;;;;;5057697;28;20280;-78
2022/10/24 08:36:24;;;;;;;;;;;19.10;99.90;;;;;;5058562;28;19969;-78
2022/10/24 08:38:49;;;;;;;;;;;19.10;99.90;;;;;;5058588;28;19954;-78
2022/10/24 08:41:18;;;;;;;;;;;18.90;99.90;;;;;;5058435;28;20374;-78
2022/10/24 08:43:44;;;;;;;;;;;19.00;99.90;;;;;;5058565;28;19939;-77
2022/10/24 08:46:18;;;;;;;;;;;19.10;99.90;;;;;;5058012;28;19912;-78
2022/10/24 08:48:48;;;;;;;;;;;19.10;99.90;;;;;;5058598;28;19988;-78
2022/10/24 08:51:22;;;;;;;;;;;19.10;99.90;;;;;;5058942;28;20395;-78
2022/10/24 08:53:50;;;;;;;;;;;19.10;99.90;;;;;;5057783;28;19909;-77
2022/10/24 08:56:16;;;;;;;;;;;19.30;99.90;;;;;;5057449;28;19909;-78
2022/10/24 08:58:42;;;;;;;;;;;19.60;99.90;;;;;;5057841;28;20222;-77
2022/10/24 09:01:26;;;;;;;;;;;19.70;99.90;;;;;;5058047;28;19908;-78
2022/10/24 09:03:52;;;;;;;;;;;19.80;99.90;;;;;;5061014;28;20341;-78
2022/10/24 09:06:22;;;;;;;;;;;19.80;99.90;;;;;;5061859;28;19908;-78
2022/10/24 09:08:57;;;;;;;;;;;19.90;99.90;;;;;;5061398;28;19913;-78
2022/10/24 09:11:46;;;;;;;;;;;20.00;99.90;;;;;;5062112;28;19908;-78
2022/10/24 09:14:32;;;;;;;;;;;20.20;99.90;;;;;;5053096;28;19912;-78
2022/10/24 09:17:00;;;;;;;;;;;20.30;99.90;;;;;;5061064;28;19908;-77
2022/10/24 09:19:28;;;;;;;;;;;20.20;99.90;;;;;;5061400;28;20007;-78
2022/10/24 09:21:55;;;;;;;;;;;20.20;99.90;;;;;;5062312;28;20330;-78
2022/10/24 09:24:29;;;;;;;;;;;20.30;99.90;;;;;;5064448;28;19959;-78
2022/10/24 09:26:55;;;;;;;;;;;20.20;99.90;;;;;;5065817;28;19978;-77
2022/10/24 09:29:21;;;;;;;;;;;20.20;99.90;;;;;;5064186;28;20023;-78
2022/10/24 09:31:48;;;;;;;;;;;20.30;99.90;;;;;;5063789;28;20374;-78
2022/10/24 09:34:15;;;;;;;;;;;20.40;99.90;;;;;;5074159;28;19908;-78
2022/10/24 09:36:41;;;;;;;;;;;20.50;99.90;;;;;;5082462;28;19913;-78
2022/10/24 09:39:27;;;;;;;;;;;20.60;99.90;;;;;;5083293;28;20282;-78
2022/10/24 09:41:52;;;;;;;;;;;20.60;99.90;;;;;;5083242;28;19962;-78
2022/10/24 09:44:45;;;;;;;;;;;20.60;99.90;;;;;;5082194;28;19908;-78
2022/10/24 09:47:24;;;;;;;;;;;20.50;99.90;;;;;;5079391;28;20302;-78
2022/10/24 09:49:49;;;;;;;;;;;20.40;99.90;;;;;;5082661;28;19942;-78
2022/10/24 09:52:19;;;;;;;;;;;20.30;99.90;;;;;;5083372;28;19908;-78
2022/10/24 09:54:46;;;;;;;;;;;20.20;99.90;;;;;;5083384;28;19912;-78
2022/10/24 09:57:11;;;;;;;;;;;20.10;99.90;;;;;;5082335;28;19969;-79
2022/10/24 09:59:37;;;;;;;;;;;20.10;99.90;;;;;;5082275;28;19908;-78
2022/10/24 10:02:18;;;;;;;;;;;19.80;99.90;;;;;;5081656;28;20002;-77
2022/10/24 10:04:44;;;;;;;;;;;19.80;99.90;;;;;;5082396;28;20282;-78
2022/10/24 10:07:12;;;;;;;;;;;19.70;99.90;;;;;;5081983;28;19915;-78
2022/10/24 10:09:45;;;;;;;;;;;19.70;99.90;;;;;;5081728;28;19962;-77
2022/10/24 10:12:25;;;;;;;;;;;19.90;99.90;;;;;;5082907;28;19912;-78
2022/10/24 10:14:51;;;;;;;;;;;20.00;99.90;;;;;;5081020;28;20295;-78
2022/10/24 10:17:21;;;;;;;;;;;20.10;99.90;;;;;;5081402;28;19908;-77
2022/10/24 10:19:47;;;;;;;;;;;20.20;99.90;;;;;;5082150;28;19908;-78
2022/10/24 10:22:26;;;;;;;;;;;20.20;99.90;;;;;;5080779;28;19914;-78
2022/10/24 10:24:52;;;;;;;;;;;20.10;99.90;;;;;;5080237;28;19957;-78
2022/10/24 10:27:23;;;;;;;;;;;20.20;99.90;;;;;;5079835;28;19912;-77
2022/10/24 10:30:05;;;;;;;;;;;20.20;99.90;;;;;;5081694;28;20333;-78
2022/10/24 10:32:35;;;;;;;;;;;20.00;99.90;;;;;;5081304;28;19912;-78
2022/10/24 10:35:14;;;;;;;;;;;19.90;99.90;;;;;;5081118;28;19912;-78
2022/10/24 10:37:45;;;;;;;;;;;20.00;99.90;;;;;;5080881;28;19908;-78
2022/10/24 10:40:22;;;;;;;;;;;20.10;99.90;;;;;;5080950;28;19912;-79
2022/10/24 10:42:49;;;;;;;;;;;20.30;99.90;;;;;;5081328;28;19921;-78
2022/10/24 10:45:19;;;;;;;;;;;20.60;99.90;;;;;;5080513;28;20275;-78
2022/10/24 10:47:54;;;;;;;;;;;20.50;99.90;;;;;;5080654;28;19908;-78
2022/10/24 10:50:29;;;;;;;;;;;20.50;99.90;;;;;;5081008;28;20016;-78
2022/10/24 10:52:59;;;;;;;;;;;20.80;99.90;;;;;;5080744;28;20271;-78
2022/10/24 10:55:27;;;;;;;;;;;20.90;99.90;;;;;;5080036;28;19912;-78
2022/10/24 10:58:19;;;;;;;;;;;21.10;99.90;;;;;;5081054;28;19914;-78
2022/10/24 11:00:57;;;;;;;;;;;21.20;99.90;;;;;;5075776;28;20363;-78
2022/10/24 11:03:42;;;;;;;;;;;21.00;99.90;;;;;;5080684;28;19967;-79
2022/10/24 11:06:10;;;;;;;;;;;20.90;99.90;;;;;;5080099;28;19930;-78
2022/10/24 11:08:55;;;;;;;;;;;20.90;99.90;;;;;;5080430;28;19939;-78
2022/10/24 11:11:26;;;;;;;;;;;21.00;99.90;;;;;;5080352;28;19912;-77
2022/10/24 11:14:03;;;;;;;;;;;22.20;99.90;;;;;;5080011;28;19919;-77
2022/10/24 11:16:30;;;;;;;;;;;22.40;99.90;;;;;;5079615;28;19908;-78
2022/10/24 11:19:00;;;;;;;;;;;22.90;99.90;;;;;;5080309;28;19908;-78
2022/10/24 11:21:28;;;;;;;;;;;22.80;99.90;;;;;;5079918;28;19957;-79
2022/10/24 11:24:03;;;;;;;;;;;24.20;99.90;;;;;;5080063;28;19908;-78
2022/10/24 11:26:34;;;;;;;;;;;23.70;99.90;;;;;;5079047;28;19955;-77
2022/10/24 11:29:03;;;;;;;;;;;22.90;99.90;;;;;;5079706;28;20336;-79
2022/10/24 11:31:28;;;;;;;;;;;22.30;99.90;;;;;;5079676;28;20416;-77
2022/10/24 11:34:12;;;;;;;;;;;21.70;99.90;;;;;;5068643;28;19916;-78
2022/10/24 11:36:42;;;;;;;;;;;21.40;99.90;;;;;;5078205;28;19940;-79
2022/10/24 11:39:10;;;;;;;;;;;21.20;99.90;;;;;;5079082;28;19915;-78
2022/10/24 11:41:43;;;;;;;;;;;21.00;99.90;;;;;;5078912;28;20367;-78
2022/10/24 11:44:23;;;;;;;;;;;20.70;99.90;;;;;;5078154;28;19957;-77
2022/10/24 11:46:52;;;;;;;;;;;20.50;99.90;;;;;;5077874;28;19912;-78
2022/10/24 11:49:21;;;;;;;;;;;20.50;99.90;;;;;;5077163;28;19917;-78
2022/10/24 11:51:49;;;;;;;;;;;20.40;99.90;;;;;;5077034;28;19908;-79
2022/10/24 11:54:20;;;;;;;;;;;20.30;99.90;;;;;;5075259;28;20010;-79
2022/10/24 11:56:49;;;;;;;;;;;20.20;99.90;;;;;;5075176;28;19915;-79
2022/10/24 11:59:17;;;;;;;;;;;20.20;99.90;;;;;;5075571;28;19908;-78
2022/10/24 12:02:01;;;;;;;;;;;20.30;99.90;;;;;;5076951;28;19908;-78
2022/10/24 12:04:36;;;;;;;;;;;20.30;99.90;;;;;;5077007;28;20274;-78
2022/10/24 12:07:01;;;;;;;;;;;20.60;99.90;;;;;;5076579;28;20328;-78
2022/10/24 12:09:39;;;;;;;;;;;20.80;99.90;;;;;;5076815;28;19916;-78
2022/10/24 12:12:20;;;;;;;;;;;20.90;99.90;;;;;;5077021;28;20006;-79
2022/10/24 12:14:48;;;;;;;;;;;20.90;99.90;;;;;;5078797;28;19908;-78
2022/10/24 12:17:23;;;;;;;;;;;20.80;99.90;;;;;;5079338;28;20010;-78
2022/10/24 12:19:49;;;;;;;;;;;20.70;99.90;;;;;;5080697;28;19908;-79
2022/10/24 12:22:22;;;;;;;;;;;20.50;99.90;;;;;;5079626;28;19957;-77
2022/10/24 12:24:48;;;;;;;;;;;20.40;99.90;;;;;;5076893;28;19948;-78
2022/10/24 12:27:20;;;;;;;;;;;20.50;99.90;;;;;;5077522;28;19919;-78
2022/10/24 12:29:58;;;;;;;;;;;20.60;99.90;;;;;;5077735;28;19918;-78
2022/10/24 12:32:32;;;;;;;;;;;21.00;99.90;;;;;;5078442;28;19908;-77
2022/10/24 12:34:59;;;;;;;;;;;21.00;99.90;;;;;;5079406;28;20303;-79
2022/10/24 12:37:25;;;;;;;;;;;21.10;99.90;;;;;;5078298;28;20493;-79
2022/10/24 12:39:51;;;;;;;;;;;21.10;99.90;;;;;;5079573;28;19912;-78
2022/10/24 12:42:23;;;;;;;;;;;20.90;99.90;;;;;;5079261;28;19972;-78
2022/10/24 12:44:49;;;;;;;;;;;20.80;99.90;;;;;;5078101;28;19916;-79
2022/10/24 12:47:35;;;;;;;;;;;20.90;99.90;;;;;;5075775;28;19912;-80
2022/10/24 12:50:19;;;;;;;;;;;20.90;99.90;;;;;;5077760;28;19923;-78
2022/10/24 12:52:45;;;;;;;;;;;20.90;99.90;;;;;;5077864;28;19915;-79
2022/10/24 12:55:46;;;;;;;;;;;20.90;99.90;;;;;;5077223;28;19919;-79
2022/10/24 12:58:28;;;;;;;;;;;21.20;99.90;;;;;;4996189;28;19910;-78
2022/10/24 13:01:17;;;;;;;;;;;21.10;99.90;;;;;;5069944;28;20279;-79
2022/10/24 13:03:54;;;;;;;;;;;21.10;99.90;;;;;;5094676;28;19908;-79
2022/10/24 13:06:31;;;;;;;;;;;21.00;99.90;;;;;;5076909;28;19980;-78
2022/10/24 13:09:22;;;;;;;;;;;20.80;99.90;;;;;;5077238;28;19911;-77
2022/10/24 13:12:07;;;;;;;;;;;20.70;99.90;;;;;;5076812;28;19930;-78
2022/10/24 13:14:36;;;;;;;;;;;20.60;99.90;;;;;;5076650;28;19998;-78
2022/10/24 13:17:12;;;;;;;;;;;20.70;99.90;;;;;;5076341;28;19931;-79
2022/10/24 13:19:38;;;;;;;;;;;20.80;99.90;;;;;;5077065;28;19908;-78
2022/10/24 13:22:03;;;;;;;;;;;20.80;99.90;;;;;;5095130;28;19908;-78
2022/10/24 13:24:38;;;;;;;;;;;20.70;99.90;;;;;;5076976;28;20382;-79
2022/10/24 13:27:07;;;;;;;;;;;20.70;99.90;;;;;;5075715;28;20012;-78
2022/10/24 13:29:32;;;;;;;;;;;20.60;99.90;;;;;;5076744;28;19912;-79
2022/10/24 13:32:04;;;;;;;;;;;20.60;99.90;;;;;;5061140;22;19948;-84
2022/10/24 13:34:43;;;;;;;;;;;20.90;99.90;;;;;;5029369;28;19909;-83
2022/10/24 13:37:08;;;;;;;;;;;21.20;99.90;;;;;;5033584;28;19913;-83
2022/10/24 13:39:37;;;;;;;;;;;21.40;99.90;;;;;;5034182;28;19962;-82
2022/10/24 13:42:04;;;;;;;;;;;21.20;99.90;;;;;;5033623;28;19909;-82
2022/10/24 13:44:37;;;;;;;;;;;20.90;99.90;;;;;;5034031;28;19909;-84
2022/10/24 13:47:09;;;;;;;;;;;21.10;99.90;;;;;;5033387;28;19912;-84
2022/10/24 13:49:46;;;;;;;;;;;21.30;99.90;;;;;;5036644;28;19919;-83
2022/10/24 13:52:18;;;;;;;;;;;21.20;99.90;;;;;;5037409;28;20007;-84
2022/10/24 13:54:45;;;;;;;;;;;21.00;99.90;;;;;;5055461;28;19916;-83
2022/10/24 13:57:28;;;;;;;;;;;21.10;99.90;;;;;;5036791;28;19912;-83
2022/10/24 13:59:55;;;;;;;;;;;21.20;99.90;;;;;;5037973;28;19908;-85
2022/10/24 14:02:22;;;;;;;;;;;21.80;99.90;;;;;;5037320;28;19909;-85
2022/10/24 14:04:48;;;;;;;;;;;21.90;99.90;;;;;;5055463;28;20477;-82
2022/10/24 14:07:25;;;;;;;;;;;21.70;99.90;;;;;;5054739;28;19959;-82
2022/10/24 14:10:11;;;;;;;;;;;21.70;99.90;;;;;;5037095;28;19919;-83
2022/10/24 14:12:37;;;;;;;;;;;21.60;99.90;;;;;;5054314;28;19908;-83
2022/10/24 14:15:05;;;;;;;;;;;21.90;99.90;;;;;;5037114;28;19909;-83
2022/10/24 14:17:33;;;;;;;;;;;21.70;99.90;;;;;;5054471;28;20268;-83
2022/10/24 14:20:00;;;;;;;;;;;21.50;99.90;;;;;;5036899;28;19909;-83
2022/10/24 14:22:27;;;;;;;;;;;21.30;99.90;;;;;;5036652;28;19916;-83
2022/10/24 14:24:53;;;;;;;;;;;21.10;99.90;;;;;;5054368;28;20593;-83
2022/10/24 14:27:19;;;;;;;;;;;21.00;99.90;;;;;;5036445;28;19908;-83